Time;durP1;ratioP1;P1;durP2;ratioP2;P2;SDS_P1;SDS_P2;PMS_P1;PMS_P2;Temp;Humidity;BMP_temperature;BMP_pressure;BME280_temperature;BME280_humidity;BME280_pressure;Samples;Min_cycle;Max_cycle;Signal;HPM_P1;HPM_P2
2023/01/30 00:00:04;;;;;;;36.58;15.52;;;;;;;;;;6103423;23;20082;-79
2023/01/30 00:06:13;;;;;;;33.78;15.13;;;;;;;;;;6103436;23;20033;-80
2023/01/30 00:12:45;;;;;;;36.63;16.95;;;;;;;;;;6165512;23;20053;-80
2023/01/30 00:30:58;;;;;;;39.72;16.65;;;;;;;;;;6279314;22;20034;-78
2023/01/30 00:37:14;;;;;;;35.50;15.65;;;;;;;;;;6302218;22;20027;-78
2023/01/30 00:40:01;;;;;;;40.17;16.38;;;;;;;;;;6280605;22;20429;-80
2023/01/30 00:49:24;;;;;;;34.45;15.23;;;;;;;;;;6283238;22;20051;-78
2023/01/30 00:52:22;;;;;;;37.65;17.08;;;;;;;;;;6232256;22;20076;-78
2023/01/30 00:54:54;;;;;;;40.70;16.00;;;;;;;;;;6281195;22;20466;-78
2023/01/30 01:03:16;;;;;;;35.97;15.80;;;;;;;;;;6275586;22;20050;-77
2023/01/30 01:05:56;;;;;;;42.58;17.90;;;;;;;;;;6281581;22;20000;-79
2023/01/30 01:08:48;;;;;;;39.20;16.20;;;;;;;;;;6284385;22;20008;-78
2023/01/30 01:11:58;;;;;;;41.20;17.17;;;;;;;;;;6282738;22;20008;-79
2023/01/30 01:14:27;;;;;;;37.33;15.60;;;;;;;;;;6281489;22;20061;-78
2023/01/30 01:17:03;;;;;;;44.22;17.50;;;;;;;;;;6282823;22;20034;-78
2023/01/30 01:23:13;;;;;;;40.30;17.38;;;;;;;;;;6284194;22;20067;-79
2023/01/30 01:29:24;;;;;;;37.45;15.57;;;;;;;;;;6162762;23;20041;-79
2023/01/30 01:35:20;;;;;;;38.53;16.00;;;;;;;;;;6163184;23;20040;-78
2023/01/30 01:37:53;;;;;;;40.00;16.23;;;;;;;;;;6240616;22;20019;-86
2023/01/30 01:43:17;;;;;;;42.53;17.98;;;0.90;99.90;;;;;;6291565;22;20086;-84
2023/01/30 01:45:43;;;;;;;37.50;16.27;;;;;;;;;;6266296;22;20004;-84
2023/01/30 01:48:12;;;;;;;38.55;16.48;;;;;;;;;;6266457;22;20014;-83
2023/01/30 01:50:40;;;;;;;38.85;16.67;;;;;;;;;;6289879;22;20065;-82
2023/01/30 01:53:07;;;;;;;39.00;16.95;;;;;;;;;;6263611;22;19999;-82
2023/01/30 01:55:33;;;;;;;38.72;17.00;;;;;;;;;;6243700;22;20018;-84
2023/01/30 01:58:04;;;;;;;41.22;17.75;;;;;;;;;;6288019;22;20054;-82
2023/01/30 02:00:31;;;;;;;44.30;17.67;;;;;;;;;;6260925;22;20031;-82
2023/01/30 02:03:00;;;;;;;40.65;16.23;;;0.80;99.90;;;;;;6290334;22;20361;-85
2023/01/30 02:05:29;;;;;;;41.08;17.50;;;;;;;;;;6258246;22;20004;-82
2023/01/30 02:08:06;;;;;;;38.78;17.13;;;;;;;;;;6257781;22;20090;-83
2023/01/30 02:10:46;;;;;;;34.80;15.38;;;;;;;;;;6262223;22;20089;-81
2023/01/30 02:13:12;;;;;;;39.00;17.20;;;;;;;;;;6236951;22;20023;-83
2023/01/30 02:15:38;;;;;;;39.22;18.65;;;0.80;99.90;;;;;;6264762;22;20007;-81
2023/01/30 02:18:04;;;;;;;38.13;16.35;;;;;;;;;;6262846;22;19988;-81
2023/01/30 02:21:07;;;;;;;36.22;16.70;;;0.80;99.90;;;;;;6263544;22;20007;-84
2023/01/30 02:23:52;;;;;;;38.00;16.02;;;;;;;;;;6264807;22;20045;-83
2023/01/30 02:26:24;;;;;;;37.72;16.70;;;;;;;;;;6265551;22;20004;-80
2023/01/30 02:29:12;;;;;;;38.22;16.13;;;0.90;99.90;;;;;;6262876;22;20436;-83
2023/01/30 02:31:56;;;;;;;36.00;15.63;;;0.90;99.90;;;;;;6264486;22;20015;-81
2023/01/30 02:34:41;;;;;;;36.38;15.32;;;;;;;;;;6264342;22;20030;-81
2023/01/30 02:37:16;;;;;;;36.47;15.95;;;1.20;99.90;;;;;;6262510;22;20012;-81
2023/01/30 02:39:51;;;;;;;35.80;14.95;;;;;;;;;;6267141;22;19988;-82
2023/01/30 02:42:49;;;;;;;35.78;15.98;;;1.20;99.90;;;;;;6266979;22;20004;-83
2023/01/30 02:45:38;;;;;;;36.08;15.77;;;1.10;99.90;;;;;;6266315;22;19999;-85
2023/01/30 02:48:09;;;;;;;38.25;16.40;;;;;;;;;;6265916;22;20073;-82
2023/01/30 02:50:44;;;;;;;39.00;16.55;;;;;;;;;;6268975;22;20027;-81
2023/01/30 02:53:10;;;;;;;40.05;16.15;;;;;;;;;;6269784;22;20051;-83
2023/01/30 02:55:39;;;;;;;39.72;17.33;;;;;;;;;;6271255;22;19992;-82
2023/01/30 02:58:05;;;;;;;40.33;15.73;;;;;;;;;;6269419;22;19992;-81
2023/01/30 03:00:50;;;;;;;35.72;17.00;;;;;;;;;;6297555;22;20003;-81
2023/01/30 03:03:16;;;;;;;36.80;16.35;;;;;;;;;;6298642;22;20003;-82
2023/01/30 03:05:42;;;;;;;35.55;16.08;;;;;;;;;;6270865;22;20029;-81
2023/01/30 03:08:29;;;;;;;37.03;16.67;;;;;;;;;;6273406;22;20027;-81
2023/01/30 03:11:00;;;;;;;38.70;16.15;;;;;;;;;;6271513;22;19987;-81
2023/01/30 03:13:33;;;;;;;41.55;17.02;;;;;;;;;;6267919;22;20004;-79
2023/01/30 03:16:03;;;;;;;38.55;17.08;;;;;;;;;;6265925;22;19996;-81
2023/01/30 03:18:29;;;;;;;39.58;17.20;;;;;;;;;;6293708;22;20004;-80
2023/01/30 03:20:55;;;;;;;39.50;16.77;;;;;;;;;;6268111;22;20007;-82
2023/01/30 03:23:21;;;;;;;37.00;15.60;;;;;;;;;;6266651;22;20061;-80
2023/01/30 03:25:48;;;;;;;41.17;17.52;;;;;;;;;;6293817;22;20078;-78
2023/01/30 03:28:17;;;;;;;39.95;17.20;;;;;;;;;;6263737;22;20059;-81
2023/01/30 03:30:43;;;;;;;39.83;16.60;;;;;;;;;;6288534;22;20056;-79
2023/01/30 03:33:10;;;;;;;43.35;18.23;;;;;;;;;;6260926;22;20459;-81
2023/01/30 03:35:36;;;;;;;36.85;15.52;;;;;;;;;;6260965;22;20309;-83
2023/01/30 03:38:02;;;;;;;41.33;17.95;;;;;;;;;;6261823;22;20004;-81
2023/01/30 03:40:29;;;;;;;41.85;17.77;;;;;;;;;;6290754;22;20000;-81
2023/01/30 03:42:55;;;;;;;41.95;17.80;;;;;;;;;;6265508;22;20019;-83
2023/01/30 03:45:21;;;;;;;42.63;16.52;;;;;;;;;;6264156;22;20004;-81
2023/01/30 03:47:47;;;;;;;37.53;16.35;;;;;;;;;;6262558;22;20033;-84
2023/01/30 03:50:13;;;;;;;43.03;18.27;;;;;;;;;;6263210;22;20000;-82
2023/01/30 03:52:39;;;;;;;38.47;16.48;;;;;;;;;;6262676;22;20007;-82
2023/01/30 03:55:05;;;;;;;41.53;17.48;;;;;;;;;;6263514;22;20039;-80
2023/01/30 03:57:31;;;;;;;43.25;18.17;;;;;;;;;;6265239;22;20033;-82
2023/01/30 03:59:57;;;;;;;43.65;17.52;;;;;;;;;;6262662;22;20697;-81
2023/01/30 04:02:25;;;;;;;48.00;17.50;;;;;;;;;;6256684;22;20000;-81
2023/01/30 04:04:51;;;;;;;42.67;17.83;;;;;;;;;;6285887;22;20011;-84
2023/01/30 04:07:19;;;;;;;42.83;17.40;;;;;;;;;;6287585;22;20008;-81
2023/01/30 04:09:45;;;;;;;42.92;17.48;;;;;;;;;;6260555;22;20023;-81
2023/01/30 04:12:12;;;;;;;44.50;17.92;;;;;;;;;;6263246;22;20011;-79
2023/01/30 04:14:38;;;;;;;44.85;19.05;;;;;;;;;;6258306;22;20346;-80
2023/01/30 04:17:04;;;;;;;42.45;17.85;;;1.00;99.90;;;;;;6259399;22;20098;-80
2023/01/30 04:19:30;;;;;;;43.85;17.65;;;;;;;;;;6261253;22;20007;-83
2023/01/30 04:21:58;;;;;;;43.15;17.58;;;;;;;;;;6259205;22;20004;-83
2023/01/30 04:24:24;;;;;;;43.05;18.25;;;;;;;;;;6259663;22;20008;-82
2023/01/30 04:26:50;;;;;;;46.30;17.60;;;;;;;;;;6261942;22;20023;-82
2023/01/30 04:29:16;;;;;;;44.28;17.08;;;;;;;;;;6239090;22;20684;-80
2023/01/30 04:31:42;;;;;;;43.40;17.85;;;;;;;;;;6289367;22;20023;-80
2023/01/30 04:34:08;;;;;;;36.78;16.15;;;;;;;;;;6263527;22;20007;-80
2023/01/30 04:36:35;;;;;;;41.28;17.75;;;;;;;;;;6289656;22;19999;-82
2023/01/30 04:39:01;;;;;;;46.05;18.58;;;;;;;;;;6290806;22;20000;-82
2023/01/30 04:41:27;;;;;;;37.28;16.02;;;;;;;;;;6289405;22;20011;-81
2023/01/30 04:43:53;;;;;;;42.17;17.50;;;;;;;;;;6288387;22;20120;-81
2023/01/30 04:46:19;;;;;;;36.47;15.68;;;;;;;;;;6288221;22;20106;-80
2023/01/30 04:48:45;;;;;;;38.38;16.45;;;;;;;;;;6289484;22;20328;-80
2023/01/30 04:51:12;;;;;;;38.05;16.50;;;;;;;;;;6288797;22;20018;-81
2023/01/30 04:53:38;;;;;;;39.05;17.15;;;;;;;;;;6290670;22;20007;-81
2023/01/30 04:56:04;;;;;;;38.80;16.73;;;;;;;;;;6291776;22;20067;-79
2023/01/30 04:58:30;;;;;;;37.45;16.33;;;;;;;;;;6290464;22;20031;-83
2023/01/30 05:00:56;;;;;;;37.08;16.77;;;;;;;;;;6288588;22;19988;-81
2023/01/30 05:03:22;;;;;;;38.92;17.02;;;;;;;;;;6291310;22;19992;-80
2023/01/30 05:05:48;;;;;;;40.90;16.88;;;;;;;;;;6288133;22;20008;-81
2023/01/30 05:08:15;;;;;;;43.33;17.70;;;;;;;;;;6290397;22;20004;-81
2023/01/30 05:10:41;;;;;;;36.58;15.90;;;;;;;;;;6293290;22;20018;-80
2023/01/30 05:13:07;;;;;;;37.60;17.25;;;;;;;;;;6293046;22;20004;-81
2023/01/30 05:15:33;;;;;;;39.70;16.80;;;;;;;;;;6293621;22;20006;-83
2023/01/30 05:18:00;;;;;;;40.05;16.83;;;;;;;;;;6289470;22;20004;-81
2023/01/30 05:20:26;;;;;;;37.67;16.13;;;;;;;;;;6291821;22;20015;-81
2023/01/30 05:22:52;;;;;;;38.50;17.23;;;;;;;;;;6291539;22;20085;-82
2023/01/30 05:25:18;;;;;;;37.00;17.15;;;;;;;;;;6294068;22;20003;-82
2023/01/30 05:27:44;;;;;;;36.58;16.55;;;;;;;;;;6298140;22;20000;-80
2023/01/30 05:30:10;;;;;;;36.97;15.90;;;;;;;;;;6296318;22;20019;-80
2023/01/30 05:32:36;;;;;;;35.90;16.40;;;;;;;;;;6293294;22;20034;-82
2023/01/30 05:35:02;;;;;;;31.83;14.38;;;;;;;;;;6292379;22;20320;-80
2023/01/30 05:37:28;;;;;;;35.20;16.50;;;;;;;;;;6289495;22;20015;-79
2023/01/30 05:39:54;;;;;;;33.08;13.32;;;;;;;;;;6291032;22;20065;-80
2023/01/30 05:42:20;;;;;;;34.28;15.70;;;;;;;;;;6290319;22;20004;-84
2023/01/30 05:44:46;;;;;;;39.47;17.00;;;;;;;;;;6288186;22;20063;-82
2023/01/30 05:47:12;;;;;;;34.03;15.45;;;;;;;;;;6287611;22;20012;-80
2023/01/30 05:49:38;;;;;;;32.72;15.15;;;;;;;;;;6287945;22;20083;-82
2023/01/30 05:52:04;;;;;;;34.63;14.32;;;;;;;;;;6293531;22;20507;-81
2023/01/30 05:54:30;;;;;;;33.42;14.55;;;;;;;;;;6293035;22;20034;-82
2023/01/30 05:56:56;;;;;;;32.45;15.43;;;;;;;;;;6287388;22;20008;-83
2023/01/30 05:59:22;;;;;;;31.95;13.88;;;;;;;;;;6285755;22;20004;-82
2023/01/30 06:01:48;;;;;;;35.42;15.52;;;;;;;;;;6290127;22;20008;-82
2023/01/30 06:04:15;;;;;;;34.72;14.82;;;1.50;99.90;;;;;;6289488;22;20084;-79
2023/01/30 06:06:41;;;;;;;30.92;14.32;;;;;;;;;;6289096;22;20038;-79
2023/01/30 06:09:09;;;;;;;30.83;13.93;;;1.60;99.90;;;;;;6289945;22;20003;-78
2023/01/30 06:11:36;;;;;;;32.92;14.60;;;;;;;;;;6291242;22;20022;-82
2023/01/30 06:14:01;;;;;;;33.42;14.23;;;;;;;;;;6289557;22;20006;-82
2023/01/30 06:16:28;;;;;;;30.52;14.23;;;;;;;;;;6289273;22;20012;-81
2023/01/30 06:18:54;;;;;;;28.63;13.20;;;;;;;;;;6289854;22;20022;-80
2023/01/30 06:21:20;;;;;;;25.38;11.77;;;;;;;;;;6289739;22;20004;-80
2023/01/30 06:23:46;;;;;;;29.92;12.85;;;;;;;;;;6289907;22;19996;-82
2023/01/30 06:26:12;;;;;;;32.00;13.50;;;;;;;;;;6286588;22;20003;-79
2023/01/30 06:28:38;;;;;;;31.20;14.68;;;;;;;;;;6282579;22;20014;-80
2023/01/30 06:31:10;;;;;;;31.88;14.50;;;;;;;;;;6280061;22;20004;-80
2023/01/30 06:33:36;;;;;;;30.60;14.23;;;;;;;;;;6283420;22;20008;-80
2023/01/30 06:36:02;;;;;;;37.50;17.02;;;;;;;;;;6284042;22;20049;-80
2023/01/30 06:38:28;;;;;;;27.42;12.75;;;;;;;;;;6277330;22;20094;-81
2023/01/30 06:40:54;;;;;;;27.08;12.27;;;;;;;;;;6278103;22;20026;-81
2023/01/30 06:43:21;;;;;;;27.20;12.68;;;;;;;;;;6281505;22;20003;-82
2023/01/30 06:45:47;;;;;;;27.30;12.73;;;;;;;;;;6282749;22;20003;-81
2023/01/30 06:48:13;;;;;;;23.13;11.13;;;;;;;;;;6279866;22;20090;-81
2023/01/30 06:50:39;;;;;;;25.42;11.05;;;;;;;;;;6279174;22;20008;-81
2023/01/30 06:53:06;;;;;;;24.48;12.20;;;;;;;;;;6281002;22;20006;-81
2023/01/30 06:55:35;;;;;;;24.77;12.10;;;;;;;;;;6278075;22;20007;-81
2023/01/30 06:58:06;;;;;;;22.30;11.65;;;;;;;;;;6277640;22;20004;-81
2023/01/30 07:00:32;;;;;;;24.23;11.73;;;;;;;;;;6277554;22;20063;-82
2023/01/30 07:02:58;;;;;;;22.58;10.63;;;;;;;;;;6282608;22;19999;-81
2023/01/30 07:05:25;;;;;;;24.02;12.00;;;;;;;;;;6281356;22;20027;-81
2023/01/30 07:07:51;;;;;;;25.50;11.88;;;;;;;;;;6280938;22;20008;-81
2023/01/30 07:10:17;;;;;;;28.35;14.02;;;;;;;;;;6280862;22;20000;-81
2023/01/30 07:12:45;;;;;;;29.35;14.30;;;;;;;;;;6278932;22;19999;-81
2023/01/30 07:15:11;;;;;;;27.95;14.27;;;;;;;;;;6279571;22;20091;-82
2023/01/30 07:17:39;;;;;;;32.83;15.18;;;;;;;;;;6277950;22;20000;-80
2023/01/30 07:20:05;;;;;;;29.88;14.07;;;;;;;;;;6276949;22;20035;-84
2023/01/30 07:22:31;;;;;;;28.25;13.02;;;;;;;;;;6274292;22;20180;-82
2023/01/30 07:24:57;;;;;;;32.53;14.90;;;;;;;;;;6276211;22;20004;-82
2023/01/30 07:27:23;;;;;;;28.73;14.70;;;;;;;;;;6273152;22;20003;-82
2023/01/30 07:29:49;;;;;;;29.38;14.25;;;;;;;;;;6274435;22;20526;-80
2023/01/30 07:32:17;;;;;;;30.33;13.75;;;;;;;;;;6275195;22;20015;-82
2023/01/30 07:34:43;;;;;;;33.97;15.77;;;;;;;;;;6274691;22;20431;-82
2023/01/30 07:37:09;;;;;;;30.42;14.90;;;;;;;;;;6272309;22;20008;-81
2023/01/30 07:39:35;;;;;;;32.40;15.20;;;;;;;;;;6270135;22;20003;-81
2023/01/30 07:42:02;;;;;;;31.40;14.52;;;;;;;;;;6270638;22;20026;-84
2023/01/30 07:44:28;;;;;;;32.13;14.57;;;;;;;;;;6271996;22;20003;-80
2023/01/30 07:46:54;;;;;;;28.42;13.15;;;;;;;;;;6272788;22;20007;-82
2023/01/30 07:49:20;;;;;;;28.17;13.80;;;;;;;;;;6276162;22;20146;-84
2023/01/30 07:51:46;;;;;;;27.80;13.60;;;;;;;;;;6277043;22;20035;-84
2023/01/30 07:54:12;;;;;;;22.77;11.55;;;;;;;;;;6274178;22;20057;-83
2023/01/30 07:56:40;;;;;;;22.52;11.63;;;;;;;;;;6246559;22;20011;-83
2023/01/30 07:59:10;;;;;;;25.40;11.88;;;;;;;;;;6282295;22;19999;-84
2023/01/30 08:01:39;;;;;;;21.00;10.60;;;;;;;;;;6281969;22;20003;-83
2023/01/30 08:04:05;;;;;;;21.90;10.70;;;;;;;;;;6277886;22;20494;-84
2023/01/30 08:06:35;;;;;;;23.65;11.10;;;;;;;;;;6275954;22;20065;-82
2023/01/30 08:09:02;;;;;;;19.75;10.88;;;;;;;;;;6286919;22;20012;-84
2023/01/30 08:11:30;;;;;;;22.35;10.40;;;;;;;;;;6288916;22;20027;-83
2023/01/30 08:13:56;;;;;;;21.25;10.23;;;;;;;;;;6292709;22;20000;-82
2023/01/30 08:16:32;;;;;;;20.52;9.73;;;;;;;;;;6289660;22;19995;-82
2023/01/30 08:18:59;;;;;;;24.48;11.13;;;;;;;;;;6288309;22;20022;-84
2023/01/30 08:21:25;;;;;;;21.27;11.18;;;;;;;;;;6296958;22;20025;-86
2023/01/30 08:23:53;;;;;;;20.77;9.75;;;;;;;;;;6290581;22;20520;-82
2023/01/30 08:26:22;;;;;;;19.02;9.93;;;;;;;;;;6296080;22;20003;-83
2023/01/30 08:28:55;;;;;;;18.50;10.00;;;;;;;;;;6297366;22;19999;-84
2023/01/30 08:31:21;;;;;;;20.70;9.93;;;;;;;;;;6295303;22;20400;-84
2023/01/30 08:33:53;;;;;;;21.52;10.65;;;;;;;;;;6290672;22;20520;-85
2023/01/30 08:36:22;;;;;;;22.00;10.02;;;;;;;;;;6290595;22;20638;-86
2023/01/30 08:38:51;;;;;;;18.42;9.30;;;;;;;;;;6289135;22;20014;-82
2023/01/30 08:41:20;;;;;;;16.95;8.23;;;;;;;;;;6284007;22;20572;-84
2023/01/30 08:43:46;;;;;;;18.23;8.77;;;;;;;;;;6286186;22;20004;-84
2023/01/30 08:46:12;;;;;;;17.52;9.52;;;;;;;;;;6283638;22;19983;-84
2023/01/30 08:48:40;;;;;;;19.17;10.13;;;;;;;;;;6288196;22;20080;-82
2023/01/30 08:51:06;;;;;;;17.50;9.68;;;;;;;;;;6289392;22;20008;-82
2023/01/30 08:53:33;;;;;;;20.15;8.90;;;;;;;;;;6286103;22;20007;-84
2023/01/30 08:55:59;;;;;;;17.85;9.02;;;;;;;;;;6276714;22;20011;-83
2023/01/30 08:58:25;;;;;;;19.60;9.30;;;;;;;;;;6281348;22;20012;-81
2023/01/30 09:00:51;;;;;;;19.73;10.38;;;;;;;;;;6291761;22;20017;-84
2023/01/30 09:03:20;;;;;;;18.90;9.80;;;;;;;;;;6288533;22;20030;-84
2023/01/30 09:05:46;;;;;;;18.60;9.07;;;;;;;;;;6293827;22;19984;-84
2023/01/30 09:08:15;;;;;;;17.60;9.05;;;;;;;;;;6288570;22;20358;-84
2023/01/30 09:10:41;;;;;;;20.80;9.02;;;;;;;;;;6287936;22;20010;-82
2023/01/30 09:13:08;;;;;;;19.80;9.68;;;;;;;;;;6284400;22;20403;-83
2023/01/30 09:15:34;;;;;;;18.08;9.25;;;;;;;;;;6281550;22;20008;-82
2023/01/30 09:18:00;;;;;;;18.60;9.75;;;;;;;;;;6281434;22;19995;-83
2023/01/30 09:20:26;;;;;;;19.30;9.43;;;;;;;;;;6286982;22;20483;-82
2023/01/30 09:22:52;;;;;;;20.42;9.27;;;;;;;;;;6285120;22;20428;-82
2023/01/30 09:25:18;;;;;;;18.33;9.60;;;;;;;;;;6285088;22;20023;-82
2023/01/30 09:27:47;;;;;;;19.67;9.30;;;;;;;;;;6280923;22;20004;-81
2023/01/30 09:30:13;;;;;;;20.33;9.65;;;;;;;;;;6284479;22;20014;-82
2023/01/30 09:40:35;;;;;;;21.52;10.25;;;;;;;;;;6311808;22;20054;-80
2023/01/30 09:43:40;;;;;;;20.48;9.85;;;2.40;99.90;;;;;;6304597;22;19983;-84
2023/01/30 09:46:19;;;;;;;21.08;9.95;;;;;;;;;;6324299;22;20007;-81
2023/01/30 09:49:10;;;;;;;18.35;9.48;;;;;;;;;;6332650;22;20067;-82
2023/01/30 09:55:56;;;;;;;19.80;8.38;;;;;;;;;;6251229;22;19998;-83
2023/01/30 10:02:41;;;;;;;18.90;9.13;;;;;;;;;;6334154;22;20029;-82
2023/01/30 10:08:59;;;;;;;47.50;9.07;;;;;;;;;;6239873;23;20260;-83
2023/01/30 10:22:06;;;;;;;16.30;7.72;;;2.80;99.90;;;;;;6150573;23;20021;-82
2023/01/30 10:34:59;;;;;;;;;;;2.80;99.90;;;;;;6141968;23;20008;-81
2023/01/30 10:41:01;;;;;;;14.65;6.82;;;;;;;;;;6330041;22;20010;-81
2023/01/30 10:44:17;;;;;;;14.13;7.55;;;;;;;;;;6297454;22;20015;-81
2023/01/30 10:47:58;;;;;;;18.17;7.80;;;3.00;99.90;;;;;;6319758;22;19999;-82
2023/01/30 10:53:58;;;;;;;15.20;7.45;;;;;;;;;;6329552;22;20060;-82
2023/01/30 10:56:45;;;;;;;13.77;6.63;;;;;;;;;;6324174;22;20003;-81
2023/01/30 10:59:44;;;;;;;12.15;6.75;;;;;;;;;;6322364;22;20037;-81
2023/01/30 11:03:04;;;;;;;13.98;6.90;;;;;;;;;;6308876;22;20379;-82
2023/01/30 11:05:53;;;;;;;13.68;6.45;;;;;;;;;;6328104;22;20006;-81
2023/01/30 11:08:29;;;;;;;11.43;6.13;;;;;;;;;;6314513;22;20007;-80
2023/01/30 11:10:57;;;;;;;12.30;6.60;;;;;;;;;;6295897;22;20005;-81
2023/01/30 11:13:29;;;;;;;13.85;7.43;;;;;;;;;;6295555;22;20026;-80
2023/01/30 11:15:56;;;;;;;12.02;6.05;;;;;;;;;;6296948;22;20007;-81
2023/01/30 11:18:23;;;;;;;12.40;6.43;;;;;;;;;;6323739;22;19999;-81
2023/01/30 11:21:04;;;;;;;14.93;6.75;;;;;;;;;;6298522;22;20532;-82
2023/01/30 11:23:41;;;;;;;12.60;6.18;;;;;;;;;;6324666;22;19999;-81
2023/01/30 11:26:16;;;;;;;10.48;5.45;;;;;;;;;;6297378;22;20063;-80
2023/01/30 11:28:45;;;;;;;10.45;5.47;;;;;;;;;;6294982;22;20003;-80
2023/01/30 11:31:21;;;;;;;9.52;5.72;;;;;;;;;;6325785;22;20059;-80
2023/01/30 11:34:10;;;;;;;10.90;6.03;;;;;;;;;;6298115;22;20361;-80
2023/01/30 11:36:37;;;;;;;11.32;5.43;;;;;;;;;;6318920;22;19999;-79
2023/01/30 11:39:14;;;;;;;10.55;5.20;;;;;;;;;;6285940;22;20456;-80
2023/01/30 11:41:56;;;;;;;11.57;6.28;;;;;;;;;;6287757;22;20036;-79
2023/01/30 11:44:29;;;;;;;11.50;6.20;;;;;;;;;;6287916;22;19999;-80
2023/01/30 11:47:08;;;;;;;10.23;5.57;;;;;;;;;;6297478;22;20003;-80
2023/01/30 11:49:53;;;;;;;10.80;5.93;;;;;;;;;;6300762;22;20003;-80
2023/01/30 11:52:24;;;;;;;13.27;7.35;;;;;;;;;;6275828;22;20022;-80
2023/01/30 11:55:05;;;;;;;11.73;5.93;;;;;;;;;;6326423;22;20018;-81
2023/01/30 11:57:40;;;;;;;19.45;8.77;;;;;;;;;;6316304;22;20003;-81
2023/01/30 12:00:13;;;;;;;11.10;6.05;;;;;;;;;;6287293;22;19995;-80
2023/01/30 12:02:40;;;;;;;12.90;7.20;;;;;;;;;;6286938;22;20010;-81
2023/01/30 12:05:17;;;;;;;9.48;5.45;;;;;;;;;;6282630;22;20076;-80
2023/01/30 12:07:45;;;;;;;10.13;5.80;;;;;;;;;;6283719;22;20057;-80
2023/01/30 12:10:43;;;;;;;10.43;5.28;;;;;;;;;;6285343;22;20422;-81
2023/01/30 12:13:17;;;;;;;9.00;4.95;;;;;;;;;;6284332;22;20003;-80
2023/01/30 12:15:47;;;;;;;11.38;5.13;;;;;;;;;;6286839;22;20007;-80
2023/01/30 12:18:25;;;;;;;13.02;5.20;;;;;;;;;;6283565;22;20007;-81
2023/01/30 12:20:59;;;;;;;8.57;4.40;;;;;;;;;;6284699;22;20067;-81
2023/01/30 12:23:51;;;;;;;8.20;4.65;;;3.80;99.90;;;;;;6284135;22;20053;-80
2023/01/30 12:26:18;;;;;;;9.07;4.90;;;;;;;;;;6312015;22;20003;-81
2023/01/30 12:28:50;;;;;;;9.20;4.78;;;;;;;;;;6284748;22;20003;-79
2023/01/30 12:31:37;;;;;;;9.80;5.35;;;;;;;;;;6286714;22;20010;-80
2023/01/30 12:34:03;;;;;;;10.23;5.00;;;;;;;;;;6284626;22;20062;-81
2023/01/30 12:36:45;;;;;;;11.07;5.47;;;;;;;;;;6283494;22;20019;-81
2023/01/30 12:39:11;;;;;;;9.75;5.10;;;;;;;;;;6281192;22;20022;-79
2023/01/30 12:41:37;;;;;;;11.07;5.22;;;;;;;;;;6281561;22;20008;-80
2023/01/30 12:44:18;;;;;;;8.90;5.22;;;;;;;;;;6282562;22;20003;-81
2023/01/30 12:46:52;;;;;;;26.25;11.77;;;;;;;;;;6309145;22;20261;-80
2023/01/30 12:49:18;;;;;;;8.43;4.93;;;;;;;;;;6282407;22;20393;-80
2023/01/30 12:51:49;;;;;;;9.77;5.93;;;;;;;;;;6283312;22;20480;-81
2023/01/30 12:54:22;;;;;;;8.95;4.78;;;;;;;;;;6282202;22;19999;-80
2023/01/30 12:56:48;;;;;;;8.80;4.60;;;;;;;;;;6312400;22;20388;-81
2023/01/30 12:59:34;;;;;;;9.20;5.05;;;;;;;;;;6289902;22;20007;-81
2023/01/30 13:02:16;;;;;;;8.30;4.75;;;;;;;;;;6281628;22;19999;-80
2023/01/30 13:04:42;;;;;;;11.00;4.85;;;;;;;;;;6282787;22;20003;-79
2023/01/30 13:07:16;;;;;;;10.38;4.90;;;;;;;;;;6284145;22;20011;-80
2023/01/30 13:09:46;;;;;;;8.88;4.68;;;;;;;;;;6282390;22;20098;-80
2023/01/30 13:12:16;;;;;;;8.20;5.20;;;;;;;;;;6282339;22;20007;-80
2023/01/30 13:15:02;;;;;;;8.85;4.70;;;;;;;;;;6281571;22;20362;-80
2023/01/30 13:17:32;;;;;;;7.95;4.25;;;;;;;;;;6314042;22;20074;-80
2023/01/30 13:20:01;;;;;;;7.57;4.43;;;;;;;;;;6311146;22;20344;-81
2023/01/30 13:22:34;;;;;;;9.75;4.60;;;;;;;;;;6291729;22;20498;-81
2023/01/30 13:25:14;;;;;;;8.90;4.97;;;;;;;;;;6292105;22;20007;-82
2023/01/30 13:28:03;;;;;;;;;;;4.40;99.90;;;;;;6295971;22;20003;-81
2023/01/30 13:30:32;;;;;;;8.30;4.15;;;;;;;;;;6297678;22;19930;-81
2023/01/30 13:33:21;;;;;;;7.30;4.53;;;;;;;;;;6298108;22;20003;-82
2023/01/30 13:36:07;;;;;;;12.05;6.80;;;;;;;;;;6322429;22;20003;-82
2023/01/30 13:38:36;;;;;;;9.65;5.30;;;;;;;;;;6298430;22;20007;-82
2023/01/30 13:41:18;;;;;;;10.20;5.47;;;;;;;;;;6325789;22;20006;-82
2023/01/30 13:43:50;;;;;;;10.82;5.45;;;;;;;;;;6293452;22;20037;-80
2023/01/30 13:46:22;;;;;;;11.38;5.45;;;;;;;;;;6297672;22;20004;-81
2023/01/30 13:48:55;;;;;;;11.38;5.70;;;;;;;;;;6327443;22;20015;-82
2023/01/30 13:51:41;;;;;;;9.07;5.18;;;;;;;;;;6301154;22;20010;-82
2023/01/30 13:54:16;;;;;;;12.93;5.68;;;;;;;;;;6326776;22;20035;-81
2023/01/30 13:57:07;;;;;;;7.70;4.65;;;;;;;;;;6306817;22;20019;-81
2023/01/30 14:00:12;;;;;;;10.70;5.15;;;;;;;;;;6327456;22;19991;-82
2023/01/30 14:03:03;;;;;;;9.05;4.65;;;;;;;;;;6327477;22;20008;-82
2023/01/30 14:05:49;;;;;;;10.27;5.72;;;;;;;;;;6301358;22;20008;-82
2023/01/30 14:08:39;;;;;;;9.07;5.43;;;;;;;;;;6331003;22;20006;-82
2023/01/30 14:11:29;;;;;;;9.43;5.43;;;;;;;;;;6303124;22;20003;-82
2023/01/30 14:14:16;;;;;;;13.30;6.53;;;;;;;;;;6331042;22;20007;-83
2023/01/30 14:17:32;;;;;;;16.55;8.63;;;;;;;;;;6335952;22;20060;-82
2023/01/30 14:20:20;;;;;;;12.27;6.20;;;;;;;;;;6334800;22;20017;-82
2023/01/30 14:25:47;;;;;;;10.18;5.43;;;;;;;;;;6286721;22;20049;-82
2023/01/30 14:28:16;;;;;;;9.13;5.95;;;;;;;;;;6269211;22;20006;-83
2023/01/30 14:30:48;;;;;;;11.35;5.75;;;;;;;;;;6268349;22;20015;-82
2023/01/30 14:33:21;;;;;;;9.60;4.75;;;;;;;;;;6268924;22;20390;-82
2023/01/30 14:36:36;;;;;;;9.50;5.30;;;5.40;99.90;;;;;;6242241;23;20013;-82
2023/01/30 14:59:31;;;;;;;11.35;4.97;;;5.50;99.90;;;;;;6256303;22;20083;-81
2023/01/30 15:02:21;;;;;;;9.10;4.60;;;;;;;;;;6296113;22;20004;-81
2023/01/30 15:04:50;;;;;;;8.88;4.78;;;;;;;;;;6293005;22;20008;-82
2023/01/30 15:08:13;;;;;;;9.18;4.90;;;5.50;99.90;;;;;;6285836;22;19999;-81
2023/01/30 15:10:58;;;;;;;9.63;4.88;;;;;;;;;;6201001;23;20032;-81
2023/01/30 15:13:53;;;;;;;8.77;5.10;;;;;;;;;;6199749;23;20009;-83
2023/01/30 15:16:27;;;;;;;9.15;5.85;;;;;;;;;;6177238;23;20047;-82
2023/01/30 15:19:14;;;;;;;9.07;5.03;;;;;;;;;;6198716;23;20088;-81
2023/01/30 15:22:13;;;;;;;9.68;5.18;;;;;;;;;;6209743;22;19999;-84
2023/01/30 15:24:42;;;;;;;9.50;5.15;;;;;;;;;;6212242;22;20007;-83
2023/01/30 15:27:17;;;;;;;10.40;5.80;;;;;;;;;;6294683;22;20003;-81
2023/01/30 15:30:44;;;;;;;12.27;5.40;;;5.60;99.90;;;;;;6299449;22;20008;-82
2023/01/30 15:33:21;;;;;;;8.95;4.85;;;;;;;;;;6288130;22;20030;-81
2023/01/30 15:35:50;;;;;;;8.88;4.45;;;;;;;;;;6295212;22;19999;-82
2023/01/30 15:38:35;;;;;;;8.88;5.20;;;;;;;;;;6289425;22;20015;-83
2023/01/30 15:41:40;;;;;;;8.82;5.28;;;;;;;;;;6295220;22;20031;-81
2023/01/30 15:47:35;;;;;;;10.43;5.35;;;;;;;;;;6278583;22;20003;-82
2023/01/30 15:50:05;;;;;;;12.30;6.00;;;;;;;;;;6286876;22;20034;-82
2023/01/30 15:52:55;;;;;;;8.77;5.60;;;;;;;;;;6293168;22;20007;-82
2023/01/30 15:55:50;;;;;;;10.70;6.03;;;;;;;;;;6293902;22;20082;-82
2023/01/30 15:58:31;;;;;;;10.57;6.18;;;;;;;;;;6288902;22;20321;-81
2023/01/30 16:00:59;;;;;;;11.07;5.25;;;;;;;;;;6287286;22;20086;-81
2023/01/30 16:03:42;;;;;;;10.63;5.90;;;;;;;;;;6291532;22;20007;-81
2023/01/30 16:06:24;;;;;;;10.70;6.18;;;;;;;;;;6264285;22;20007;-82
2023/01/30 16:09:28;;;;;;;11.77;5.75;;;;;;;;;;6263981;22;20000;-81
2023/01/30 16:11:59;;;;;;;11.00;6.22;;;;;;;;;;6273986;22;20112;-81
2023/01/30 16:15:17;;;;;;;12.75;6.80;;;5.40;99.90;;;;;;6163546;23;20010;-81
2023/01/30 16:22:07;;;;;;;12.50;5.78;;;5.30;99.90;;;;;;6264462;22;20011;-81
2023/01/30 16:39:38;;;;;;;15.50;7.25;;;;;;;;;;6302582;22;20046;-82
2023/01/30 16:42:29;;;;;;;12.98;6.80;;;5.30;99.90;;;;;;6293143;22;20089;-80
2023/01/30 16:45:47;;;;;;;31.02;19.98;;;5.30;99.90;;;;;;6265344;22;20103;-80
2023/01/30 16:48:20;;;;;;;17.58;7.53;;;;;;;;;;6211869;22;20004;-79
2023/01/30 16:51:27;;;;;;;14.13;7.88;;;5.30;99.90;;;;;;6289556;22;20028;-79
2023/01/30 16:53:59;;;;;;;15.57;8.20;;;;;;;;;;6237072;22;20011;-79
2023/01/30 16:56:32;;;;;;;19.73;10.02;;;5.20;99.90;;;;;;6288683;22;20000;-79
2023/01/30 16:59:05;;;;;;;14.73;8.50;;;5.20;99.90;;;;;;6262808;22;20039;-80
2023/01/30 17:01:48;;;;;;;22.50;10.27;;;5.30;99.90;;;;;;6261413;22;20000;-80
2023/01/30 17:04:31;;;;;;;13.68;7.65;;;5.20;99.90;;;;;;6260071;22;20004;-79
2023/01/30 17:07:33;;;;;;;13.30;8.13;;;;;;;;;;6233077;22;20011;-80
2023/01/30 17:10:26;;;;;;;13.20;8.27;;;;;;;;;;6291366;22;20004;-79
2023/01/30 17:12:59;;;;;;;15.30;8.43;;;;;;;;;;6228314;22;20030;-80
2023/01/30 17:15:33;;;;;;;16.35;8.35;;;5.20;99.90;;;;;;6263714;22;20010;-80
2023/01/30 17:18:19;;;;;;;12.48;7.70;;;5.30;99.90;;;;;;6290198;22;20677;-80